sensor_id;sensor_type;location;lat;lon;timestamp;P1;durP1;ratioP1;P2;durP2;ratioP2
48635;SDS011;34429;52.332;5.614;2023-01-16T00:00:22;9.55;;;2.55;;
48635;SDS011;34429;52.332;5.614;2023-01-16T00:02:50;7.47;;;2.60;;
48635;SDS011;34429;52.332;5.614;2023-01-16T00:05:21;6.00;;;2.53;;
48635;SDS011;34429;52.332;5.614;2023-01-16T00:07:49;9.48;;;2.47;;
48635;SDS011;34429;52.332;5.614;2023-01-16T00:10:18;5.60;;;2.15;;
48635;SDS011;34429;52.332;5.614;2023-01-16T00:12:46;9.18;;;2.60;;
48635;SDS011;34429;52.332;5.614;2023-01-16T00:15:15;6.00;;;2.85;;
48635;SDS011;34429;52.332;5.614;2023-01-16T00:17:44;8.50;;;2.55;;
48635;SDS011;34429;52.332;5.614;2023-01-16T00:20:13;7.25;;;2.60;;
48635;SDS011;34429;52.332;5.614;2023-01-16T00:22:44;10.37;;;2.80;;
48635;SDS011;34429;52.332;5.614;2023-01-16T00:25:13;5.68;;;2.53;;
48635;SDS011;34429;52.332;5.614;2023-01-16T00:27:41;9.07;;;2.37;;
48635;SDS011;34429;52.332;5.614;2023-01-16T00:30:10;4.47;;;2.55;;
48635;SDS011;34429;52.332;5.614;2023-01-16T00:32:38;5.72;;;2.13;;
48635;SDS011;34429;52.332;5.614;2023-01-16T00:35:07;12.18;;;2.50;;
48635;SDS011;34429;52.332;5.614;2023-01-16T00:37:36;6.45;;;2.70;;
48635;SDS011;34429;52.332;5.614;2023-01-16T00:40:08;3.80;;;2.40;;
48635;SDS011;34429;52.332;5.614;2023-01-16T00:42:37;8.07;;;3.00;;
48635;SDS011;34429;52.332;5.614;2023-01-16T00:45:06;6.07;;;3.03;;
48635;SDS011;34429;52.332;5.614;2023-01-16T00:47:36;6.10;;;2.70;;
48635;SDS011;34429;52.332;5.614;2023-01-16T00:50:05;7.45;;;2.63;;
48635;SDS011;34429;52.332;5.614;2023-01-16T00:52:34;10.10;;;3.55;;
48635;SDS011;34429;52.332;5.614;2023-01-16T00:55:03;6.43;;;3.13;;
48635;SDS011;34429;52.332;5.614;2023-01-16T00:57:34;4.50;;;3.00;;
48635;SDS011;34429;52.332;5.614;2023-01-16T01:00:03;8.55;;;3.50;;
48635;SDS011;34429;52.332;5.614;2023-01-16T01:02:32;9.02;;;4.28;;
48635;SDS011;34429;52.332;5.614;2023-01-16T01:05:01;5.97;;;3.30;;
48635;SDS011;34429;52.332;5.614;2023-01-16T01:07:31;11.23;;;3.60;;
48635;SDS011;34429;52.332;5.614;2023-01-16T01:10:00;8.20;;;4.22;;
48635;SDS011;34429;52.332;5.614;2023-01-16T01:12:28;6.82;;;4.32;;
48635;SDS011;34429;52.332;5.614;2023-01-16T01:14:59;7.05;;;4.15;;
48635;SDS011;34429;52.332;5.614;2023-01-16T01:17:28;6.50;;;3.90;;
48635;SDS011;34429;52.332;5.614;2023-01-16T01:19:56;6.97;;;4.20;;
48635;SDS011;34429;52.332;5.614;2023-01-16T01:22:24;10.23;;;4.40;;
48635;SDS011;34429;52.332;5.614;2023-01-16T01:24:54;7.40;;;3.95;;
48635;SDS011;34429;52.332;5.614;2023-01-16T01:27:22;9.20;;;4.35;;
48635;SDS011;34429;52.332;5.614;2023-01-16T01:29:50;6.78;;;4.18;;
48635;SDS011;34429;52.332;5.614;2023-01-16T01:32:21;7.57;;;4.00;;
48635;SDS011;34429;52.332;5.614;2023-01-16T01:34:50;7.90;;;4.43;;
48635;SDS011;34429;52.332;5.614;2023-01-16T01:37:18;11.02;;;4.72;;
48635;SDS011;34429;52.332;5.614;2023-01-16T01:39:46;9.13;;;5.10;;
48635;SDS011;34429;52.332;5.614;2023-01-16T01:42:15;12.10;;;6.80;;
48635;SDS011;34429;52.332;5.614;2023-01-16T01:44:56;11.77;;;6.05;;
48635;SDS011;34429;52.332;5.614;2023-01-16T01:47:32;9.52;;;5.68;;
48635;SDS011;34429;52.332;5.614;2023-01-16T01:50:13;11.55;;;6.03;;
48635;SDS011;34429;52.332;5.614;2023-01-16T01:52:46;9.75;;;5.35;;
48635;SDS011;34429;52.332;5.614;2023-01-16T01:55:15;9.75;;;6.07;;
48635;SDS011;34429;52.332;5.614;2023-01-16T01:57:47;15.60;;;7.38;;
48635;SDS011;34429;52.332;5.614;2023-01-16T02:00:21;11.93;;;6.68;;
48635;SDS011;34429;52.332;5.614;2023-01-16T02:02:54;13.90;;;7.57;;
48635;SDS011;34429;52.332;5.614;2023-01-16T02:05:28;13.65;;;7.85;;
48635;SDS011;34429;52.332;5.614;2023-01-16T02:07:58;18.55;;;8.57;;
48635;SDS011;34429;52.332;5.614;2023-01-16T02:10:31;18.95;;;9.95;;
48635;SDS011;34429;52.332;5.614;2023-01-16T02:13:05;16.23;;;9.60;;
48635;SDS011;34429;52.332;5.614;2023-01-16T02:15:33;18.83;;;10.35;;
48635;SDS011;34429;52.332;5.614;2023-01-16T02:18:04;21.00;;;9.80;;
48635;SDS011;34429;52.332;5.614;2023-01-16T02:20:52;23.63;;;10.88;;
48635;SDS011;34429;52.332;5.614;2023-01-16T02:26:42;20.27;;;10.43;;
48635;SDS011;34429;52.332;5.614;2023-01-16T02:29:34;20.27;;;9.77;;
48635;SDS011;34429;52.332;5.614;2023-01-16T02:32:25;21.60;;;10.60;;
48635;SDS011;34429;52.332;5.614;2023-01-16T02:35:13;22.67;;;10.77;;
48635;SDS011;34429;52.332;5.614;2023-01-16T02:37:54;20.10;;;10.55;;
48635;SDS011;34429;52.332;5.614;2023-01-16T02:40:27;22.63;;;10.30;;
48635;SDS011;34429;52.332;5.614;2023-01-16T02:43:07;25.50;;;11.23;;
48635;SDS011;34429;52.332;5.614;2023-01-16T02:45:43;23.08;;;11.23;;
48635;SDS011;34429;52.332;5.614;2023-01-16T02:48:23;20.27;;;11.13;;
48635;SDS011;34429;52.332;5.614;2023-01-16T02:53:29;20.45;;;11.00;;
48635;SDS011;34429;52.332;5.614;2023-01-16T02:56:04;20.15;;;10.95;;
48635;SDS011;34429;52.332;5.614;2023-01-16T02:58:39;21.10;;;10.05;;
48635;SDS011;34429;52.332;5.614;2023-01-16T03:01:11;18.63;;;10.35;;
48635;SDS011;34429;52.332;5.614;2023-01-16T03:03:46;17.60;;;9.43;;
48635;SDS011;34429;52.332;5.614;2023-01-16T03:06:24;18.38;;;10.57;;
48635;SDS011;34429;52.332;5.614;2023-01-16T03:09:02;17.80;;;9.07;;
48635;SDS011;34429;52.332;5.614;2023-01-16T03:11:52;21.85;;;10.98;;
48635;SDS011;34429;52.332;5.614;2023-01-16T03:14:34;17.42;;;9.40;;
48635;SDS011;34429;52.332;5.614;2023-01-16T03:17:07;15.38;;;8.60;;
48635;SDS011;34429;52.332;5.614;2023-01-16T03:19:52;15.32;;;7.82;;
48635;SDS011;34429;52.332;5.614;2023-01-16T03:22:38;14.85;;;8.60;;
48635;SDS011;34429;52.332;5.614;2023-01-16T03:25:18;13.68;;;7.28;;
48635;SDS011;34429;52.332;5.614;2023-01-16T03:27:54;13.95;;;6.65;;
48635;SDS011;34429;52.332;5.614;2023-01-16T03:30:33;15.73;;;7.03;;
48635;SDS011;34429;52.332;5.614;2023-01-16T03:33:09;11.30;;;6.40;;
48635;SDS011;34429;52.332;5.614;2023-01-16T03:35:48;13.32;;;6.45;;
48635;SDS011;34429;52.332;5.614;2023-01-16T03:38:20;15.77;;;6.18;;
48635;SDS011;34429;52.332;5.614;2023-01-16T03:40:52;10.63;;;6.07;;
48635;SDS011;34429;52.332;5.614;2023-01-16T03:43:26;12.90;;;6.15;;
48635;SDS011;34429;52.332;5.614;2023-01-16T03:45:58;13.45;;;4.60;;
48635;SDS011;34429;52.332;5.614;2023-01-16T03:48:34;12.57;;;5.82;;
48635;SDS011;34429;52.332;5.614;2023-01-16T03:51:11;13.82;;;5.88;;
48635;SDS011;34429;52.332;5.614;2023-01-16T03:53:47;11.90;;;6.03;;
48635;SDS011;34429;52.332;5.614;2023-01-16T03:56:26;11.50;;;5.30;;
48635;SDS011;34429;52.332;5.614;2023-01-16T03:58:59;18.95;;;6.90;;
48635;SDS011;34429;52.332;5.614;2023-01-16T04:01:32;20.17;;;7.60;;
48635;SDS011;34429;52.332;5.614;2023-01-16T04:04:06;16.33;;;5.97;;
48635;SDS011;34429;52.332;5.614;2023-01-16T04:06:44;10.75;;;4.97;;
48635;SDS011;34429;52.332;5.614;2023-01-16T04:09:18;14.98;;;5.88;;
48635;SDS011;34429;52.332;5.614;2023-01-16T04:11:51;20.45;;;5.55;;
48635;SDS011;34429;52.332;5.614;2023-01-16T04:14:21;19.88;;;5.30;;
48635;SDS011;34429;52.332;5.614;2023-01-16T04:16:51;13.18;;;5.15;;
48635;SDS011;34429;52.332;5.614;2023-01-16T04:19:20;9.35;;;3.90;;
48635;SDS011;34429;52.332;5.614;2023-01-16T04:21:53;9.18;;;3.90;;
48635;SDS011;34429;52.332;5.614;2023-01-16T04:24:21;7.32;;;4.13;;
48635;SDS011;34429;52.332;5.614;2023-01-16T04:26:50;7.78;;;4.10;;
48635;SDS011;34429;52.332;5.614;2023-01-16T04:29:19;10.40;;;4.00;;
48635;SDS011;34429;52.332;5.614;2023-01-16T04:31:47;7.22;;;3.60;;
48635;SDS011;34429;52.332;5.614;2023-01-16T04:34:15;8.55;;;4.18;;
48635;SDS011;34429;52.332;5.614;2023-01-16T04:36:44;10.93;;;3.35;;
48635;SDS011;34429;52.332;5.614;2023-01-16T04:39:15;6.47;;;2.70;;
48635;SDS011;34429;52.332;5.614;2023-01-16T04:41:43;7.65;;;3.25;;
48635;SDS011;34429;52.332;5.614;2023-01-16T04:44:30;7.82;;;3.70;;
48635;SDS011;34429;52.332;5.614;2023-01-16T04:46:59;11.68;;;3.42;;
48635;SDS011;34429;52.332;5.614;2023-01-16T04:49:27;5.50;;;3.05;;
48635;SDS011;34429;52.332;5.614;2023-01-16T04:51:56;7.73;;;2.70;;
48635;SDS011;34429;52.332;5.614;2023-01-16T04:54:24;11.23;;;3.03;;
48635;SDS011;34429;52.332;5.614;2023-01-16T04:56:53;8.20;;;2.67;;
48635;SDS011;34429;52.332;5.614;2023-01-16T04:59:21;5.82;;;2.75;;
48635;SDS011;34429;52.332;5.614;2023-01-16T05:01:52;4.50;;;2.53;;
48635;SDS011;34429;52.332;5.614;2023-01-16T05:04:21;6.53;;;2.65;;
48635;SDS011;34429;52.332;5.614;2023-01-16T05:06:49;6.43;;;2.75;;
48635;SDS011;34429;52.332;5.614;2023-01-16T05:09:18;8.68;;;3.95;;
48635;SDS011;34429;52.332;5.614;2023-01-16T05:11:46;10.40;;;3.42;;
48635;SDS011;34429;52.332;5.614;2023-01-16T05:14:14;5.18;;;2.38;;
48635;SDS011;34429;52.332;5.614;2023-01-16T05:16:43;7.13;;;2.75;;
48635;SDS011;34429;52.332;5.614;2023-01-16T05:19:14;6.97;;;2.65;;
48635;SDS011;34429;52.332;5.614;2023-01-16T05:21:42;5.65;;;2.47;;
48635;SDS011;34429;52.332;5.614;2023-01-16T05:24:10;6.15;;;2.40;;
48635;SDS011;34429;52.332;5.614;2023-01-16T05:26:39;7.35;;;2.42;;
48635;SDS011;34429;52.332;5.614;2023-01-16T05:29:07;10.63;;;2.45;;
48635;SDS011;34429;52.332;5.614;2023-01-16T05:31:35;4.75;;;2.20;;
48635;SDS011;34429;52.332;5.614;2023-01-16T05:34:04;7.65;;;2.40;;
48635;SDS011;34429;52.332;5.614;2023-01-16T05:36:35;6.38;;;2.60;;
48635;SDS011;34429;52.332;5.614;2023-01-16T05:39:03;7.05;;;2.67;;
48635;SDS011;34429;52.332;5.614;2023-01-16T05:41:31;2.85;;;2.05;;
48635;SDS011;34429;52.332;5.614;2023-01-16T05:44:00;10.30;;;2.65;;
48635;SDS011;34429;52.332;5.614;2023-01-16T05:46:28;6.88;;;2.75;;
48635;SDS011;34429;52.332;5.614;2023-01-16T05:48:56;5.13;;;2.53;;
48635;SDS011;34429;52.332;5.614;2023-01-16T05:51:25;7.60;;;2.20;;
48635;SDS011;34429;52.332;5.614;2023-01-16T05:53:56;9.15;;;2.60;;
48635;SDS011;34429;52.332;5.614;2023-01-16T05:56:24;5.65;;;1.90;;
48635;SDS011;34429;52.332;5.614;2023-01-16T05:58:53;4.78;;;2.35;;
48635;SDS011;34429;52.332;5.614;2023-01-16T06:01:22;7.10;;;2.13;;
48635;SDS011;34429;52.332;5.614;2023-01-16T06:03:50;8.65;;;2.78;;
48635;SDS011;34429;52.332;5.614;2023-01-16T06:06:18;5.47;;;1.85;;
48635;SDS011;34429;52.332;5.614;2023-01-16T06:08:47;6.68;;;1.88;;
48635;SDS011;34429;52.332;5.614;2023-01-16T06:11:18;7.35;;;2.08;;
48635;SDS011;34429;52.332;5.614;2023-01-16T06:13:46;9.05;;;2.10;;
48635;SDS011;34429;52.332;5.614;2023-01-16T06:16:15;5.93;;;2.13;;
48635;SDS011;34429;52.332;5.614;2023-01-16T06:18:43;6.60;;;2.03;;
48635;SDS011;34429;52.332;5.614;2023-01-16T06:21:11;5.60;;;2.13;;
48635;SDS011;34429;52.332;5.614;2023-01-16T06:23:41;9.30;;;2.63;;
48635;SDS011;34429;52.332;5.614;2023-01-16T06:26:10;7.03;;;2.25;;
48635;SDS011;34429;52.332;5.614;2023-01-16T06:28:41;6.55;;;2.90;;
48635;SDS011;34429;52.332;5.614;2023-01-16T06:31:09;5.43;;;2.20;;
48635;SDS011;34429;52.332;5.614;2023-01-16T06:33:37;4.45;;;1.95;;
48635;SDS011;34429;52.332;5.614;2023-01-16T06:36:06;10.75;;;3.05;;
48635;SDS011;34429;52.332;5.614;2023-01-16T06:38:34;10.03;;;2.47;;
48635;SDS011;34429;52.332;5.614;2023-01-16T06:41:03;7.22;;;2.20;;
48635;SDS011;34429;52.332;5.614;2023-01-16T06:43:31;4.53;;;2.30;;
48635;SDS011;34429;52.332;5.614;2023-01-16T06:46:02;7.17;;;2.40;;
48635;SDS011;34429;52.332;5.614;2023-01-16T06:48:31;4.70;;;2.38;;
48635;SDS011;34429;52.332;5.614;2023-01-16T06:50:59;7.87;;;2.07;;
48635;SDS011;34429;52.332;5.614;2023-01-16T06:53:29;5.68;;;1.90;;
48635;SDS011;34429;52.332;5.614;2023-01-16T06:55:57;10.50;;;2.60;;
48635;SDS011;34429;52.332;5.614;2023-01-16T06:58:26;8.60;;;2.20;;
48635;SDS011;34429;52.332;5.614;2023-01-16T07:00:54;4.68;;;2.25;;
48635;SDS011;34429;52.332;5.614;2023-01-16T07:03:25;5.10;;;2.33;;
48635;SDS011;34429;52.332;5.614;2023-01-16T07:05:53;3.70;;;1.92;;
48635;SDS011;34429;52.332;5.614;2023-01-16T07:08:22;5.22;;;2.35;;
48635;SDS011;34429;52.332;5.614;2023-01-16T07:10:50;6.35;;;2.15;;
48635;SDS011;34429;52.332;5.614;2023-01-16T07:13:19;8.18;;;2.42;;
48635;SDS011;34429;52.332;5.614;2023-01-16T07:15:52;7.05;;;2.72;;
48635;SDS011;34429;52.332;5.614;2023-01-16T07:18:35;8.65;;;2.40;;
48635;SDS011;34429;52.332;5.614;2023-01-16T07:21:16;6.60;;;1.98;;
48635;SDS011;34429;52.332;5.614;2023-01-16T07:24:02;5.47;;;2.00;;
48635;SDS011;34429;52.332;5.614;2023-01-16T07:26:34;8.25;;;2.15;;
48635;SDS011;34429;52.332;5.614;2023-01-16T07:29:05;4.53;;;2.13;;
48635;SDS011;34429;52.332;5.614;2023-01-16T07:31:34;6.30;;;1.83;;
48635;SDS011;34429;52.332;5.614;2023-01-16T07:34:06;4.03;;;1.98;;
48635;SDS011;34429;52.332;5.614;2023-01-16T07:36:34;5.28;;;1.92;;
48635;SDS011;34429;52.332;5.614;2023-01-16T07:39:02;7.30;;;2.22;;
48635;SDS011;34429;52.332;5.614;2023-01-16T07:41:31;5.70;;;1.92;;
48635;SDS011;34429;52.332;5.614;2023-01-16T07:43:59;6.20;;;1.48;;
48635;SDS011;34429;52.332;5.614;2023-01-16T07:46:28;4.45;;;1.50;;
48635;SDS011;34429;52.332;5.614;2023-01-16T07:48:56;5.23;;;2.07;;
48635;SDS011;34429;52.332;5.614;2023-01-16T07:51:27;5.22;;;2.05;;
48635;SDS011;34429;52.332;5.614;2023-01-16T07:53:55;6.32;;;1.27;;
48635;SDS011;34429;52.332;5.614;2023-01-16T07:56:24;7.18;;;1.90;;
48635;SDS011;34429;52.332;5.614;2023-01-16T07:58:52;4.80;;;1.55;;
48635;SDS011;34429;52.332;5.614;2023-01-16T08:01:20;4.47;;;1.90;;
48635;SDS011;34429;52.332;5.614;2023-01-16T08:03:49;6.53;;;2.13;;
48635;SDS011;34429;52.332;5.614;2023-01-16T08:06:17;6.18;;;2.53;;
48635;SDS011;34429;52.332;5.614;2023-01-16T08:08:48;7.75;;;3.05;;
48635;SDS011;34429;52.332;5.614;2023-01-16T08:11:16;12.52;;;4.22;;
48635;SDS011;34429;52.332;5.614;2023-01-16T08:13:57;5.00;;;3.35;;
48635;SDS011;34429;52.332;5.614;2023-01-16T08:16:25;8.90;;;3.63;;
48635;SDS011;34429;52.332;5.614;2023-01-16T08:18:54;6.78;;;3.50;;
48635;SDS011;34429;52.332;5.614;2023-01-16T08:21:22;10.77;;;4.35;;
48635;SDS011;34429;52.332;5.614;2023-01-16T08:23:54;9.02;;;4.50;;
48635;SDS011;34429;52.332;5.614;2023-01-16T08:26:22;9.80;;;4.65;;
48635;SDS011;34429;52.332;5.614;2023-01-16T08:28:51;5.93;;;3.80;;
48635;SDS011;34429;52.332;5.614;2023-01-16T08:31:19;11.35;;;4.95;;
48635;SDS011;34429;52.332;5.614;2023-01-16T08:33:48;9.40;;;4.68;;
48635;SDS011;34429;52.332;5.614;2023-01-16T08:36:17;9.98;;;5.75;;
48635;SDS011;34429;52.332;5.614;2023-01-16T08:38:45;11.25;;;5.35;;
48635;SDS011;34429;52.332;5.614;2023-01-16T08:41:17;9.43;;;5.75;;
48635;SDS011;34429;52.332;5.614;2023-01-16T08:43:58;11.25;;;5.70;;
48635;SDS011;34429;52.332;5.614;2023-01-16T08:46:49;7.93;;;5.13;;
48635;SDS011;34429;52.332;5.614;2023-01-16T08:49:34;9.10;;;4.72;;
48635;SDS011;34429;52.332;5.614;2023-01-16T08:52:15;7.13;;;4.72;;
48635;SDS011;34429;52.332;5.614;2023-01-16T08:54:43;7.72;;;5.07;;
48635;SDS011;34429;52.332;5.614;2023-01-16T08:57:14;6.32;;;4.53;;
48635;SDS011;34429;52.332;5.614;2023-01-16T08:59:43;7.43;;;4.22;;
48635;SDS011;34429;52.332;5.614;2023-01-16T09:02:11;9.25;;;5.13;;
48635;SDS011;34429;52.332;5.614;2023-01-16T09:04:40;6.82;;;4.68;;
48635;SDS011;34429;52.332;5.614;2023-01-16T09:07:09;11.18;;;5.20;;
48635;SDS011;34429;52.332;5.614;2023-01-16T09:09:37;7.93;;;4.90;;
48635;SDS011;34429;52.332;5.614;2023-01-16T09:12:07;7.30;;;4.40;;
48635;SDS011;34429;52.332;5.614;2023-01-16T09:14:51;7.82;;;4.20;;
48635;SDS011;34429;52.332;5.614;2023-01-16T09:17:20;8.82;;;4.00;;
48635;SDS011;34429;52.332;5.614;2023-01-16T09:19:49;8.43;;;4.07;;
48635;SDS011;34429;52.332;5.614;2023-01-16T09:22:17;7.00;;;4.25;;
48635;SDS011;34429;52.332;5.614;2023-01-16T09:24:46;8.43;;;4.40;;
48635;SDS011;34429;52.332;5.614;2023-01-16T09:27:14;6.38;;;3.70;;
48635;SDS011;34429;52.332;5.614;2023-01-16T09:29:43;7.72;;;3.55;;
48635;SDS011;34429;52.332;5.614;2023-01-16T09:32:14;8.90;;;3.70;;
48635;SDS011;34429;52.332;5.614;2023-01-16T09:34:43;8.00;;;4.35;;
48635;SDS011;34429;52.332;5.614;2023-01-16T09:37:12;5.82;;;3.80;;
48635;SDS011;34429;52.332;5.614;2023-01-16T09:39:40;7.07;;;3.58;;
48635;SDS011;34429;52.332;5.614;2023-01-16T09:42:15;6.75;;;3.75;;
48635;SDS011;34429;52.332;5.614;2023-01-16T09:45:07;8.82;;;4.10;;
48635;SDS011;34429;52.332;5.614;2023-01-16T09:47:43;7.95;;;3.67;;
48635;SDS011;34429;52.332;5.614;2023-01-16T09:50:18;8.15;;;3.90;;
48635;SDS011;34429;52.332;5.614;2023-01-16T09:52:52;7.15;;;4.05;;
48635;SDS011;34429;52.332;5.614;2023-01-16T09:55:40;6.47;;;3.65;;
48635;SDS011;34429;52.332;5.614;2023-01-16T09:58:24;6.40;;;3.70;;
48635;SDS011;34429;52.332;5.614;2023-01-16T10:01:04;6.60;;;3.83;;
48635;SDS011;34429;52.332;5.614;2023-01-16T10:03:37;7.10;;;3.70;;
48635;SDS011;34429;52.332;5.614;2023-01-16T10:06:11;9.65;;;4.00;;
48635;SDS011;34429;52.332;5.614;2023-01-16T10:08:47;7.13;;;4.13;;
48635;SDS011;34429;52.332;5.614;2023-01-16T10:11:30;5.72;;;3.78;;
48635;SDS011;34429;52.332;5.614;2023-01-16T10:14:12;4.75;;;3.25;;
48635;SDS011;34429;52.332;5.614;2023-01-16T10:16:51;7.60;;;3.92;;
48635;SDS011;34429;52.332;5.614;2023-01-16T10:19:32;5.83;;;3.43;;
48635;SDS011;34429;52.332;5.614;2023-01-16T10:25:06;4.78;;;3.38;;
48635;SDS011;34429;52.332;5.614;2023-01-16T10:27:46;6.38;;;3.38;;
48635;SDS011;34429;52.332;5.614;2023-01-16T10:30:23;4.18;;;3.10;;
48635;SDS011;34429;52.332;5.614;2023-01-16T10:32:56;5.72;;;3.40;;
48635;SDS011;34429;52.332;5.614;2023-01-16T10:35:35;7.00;;;3.47;;
48635;SDS011;34429;52.332;5.614;2023-01-16T10:38:12;8.90;;;4.43;;
48635;SDS011;34429;52.332;5.614;2023-01-16T10:40:49;5.82;;;3.75;;
48635;SDS011;34429;52.332;5.614;2023-01-16T10:43:23;7.28;;;3.80;;
48635;SDS011;34429;52.332;5.614;2023-01-16T10:46:13;5.75;;;3.63;;
48635;SDS011;34429;52.332;5.614;2023-01-16T10:48:58;9.38;;;4.88;;
48635;SDS011;34429;52.332;5.614;2023-01-16T10:51:41;4.60;;;3.30;;
48635;SDS011;34429;52.332;5.614;2023-01-16T10:54:09;5.13;;;3.13;;
48635;SDS011;34429;52.332;5.614;2023-01-16T10:56:38;4.30;;;3.47;;
48635;SDS011;34429;52.332;5.614;2023-01-16T10:59:07;3.42;;;2.85;;
48635;SDS011;34429;52.332;5.614;2023-01-16T11:01:38;4.00;;;3.53;;
48635;SDS011;34429;52.332;5.614;2023-01-16T11:04:09;6.13;;;3.60;;
48635;SDS011;34429;52.332;5.614;2023-01-16T11:06:41;5.10;;;3.20;;
48635;SDS011;34429;52.332;5.614;2023-01-16T11:09:16;7.75;;;3.47;;
48635;SDS011;34429;52.332;5.614;2023-01-16T11:11:47;4.00;;;2.97;;
48635;SDS011;34429;52.332;5.614;2023-01-16T11:14:31;4.40;;;2.97;;
48635;SDS011;34429;52.332;5.614;2023-01-16T11:17:20;4.30;;;3.30;;
48635;SDS011;34429;52.332;5.614;2023-01-16T11:20:03;3.72;;;3.25;;
48635;SDS011;34429;52.332;5.614;2023-01-16T11:22:38;6.32;;;3.95;;
48635;SDS011;34429;52.332;5.614;2023-01-16T11:25:13;5.75;;;3.60;;
48635;SDS011;34429;52.332;5.614;2023-01-16T11:27:45;5.45;;;3.10;;
48635;SDS011;34429;52.332;5.614;2023-01-16T11:30:18;4.45;;;3.25;;
48635;SDS011;34429;52.332;5.614;2023-01-16T11:32:50;4.05;;;3.00;;
48635;SDS011;34429;52.332;5.614;2023-01-16T11:35:25;4.80;;;3.22;;
48635;SDS011;34429;52.332;5.614;2023-01-16T11:37:59;5.78;;;3.00;;
48635;SDS011;34429;52.332;5.614;2023-01-16T11:40:31;4.70;;;3.30;;
48635;SDS011;34429;52.332;5.614;2023-01-16T11:43:06;4.43;;;2.90;;
48635;SDS011;34429;52.332;5.614;2023-01-16T11:45:55;4.97;;;2.80;;
48635;SDS011;34429;52.332;5.614;2023-01-16T11:48:36;4.75;;;2.83;;
48635;SDS011;34429;52.332;5.614;2023-01-16T11:51:06;5.82;;;2.97;;
48635;SDS011;34429;52.332;5.614;2023-01-16T11:53:43;5.22;;;2.90;;
48635;SDS011;34429;52.332;5.614;2023-01-16T11:56:17;4.13;;;2.75;;
48635;SDS011;34429;52.332;5.614;2023-01-16T11:59:01;4.57;;;2.88;;
48635;SDS011;34429;52.332;5.614;2023-01-16T12:01:47;5.60;;;3.28;;
48635;SDS011;34429;52.332;5.614;2023-01-16T12:04:36;4.07;;;2.42;;
48635;SDS011;34429;52.332;5.614;2023-01-16T12:07:30;6.30;;;3.53;;
48635;SDS011;34429;52.332;5.614;2023-01-16T12:10:23;4.90;;;2.83;;
48635;SDS011;34429;52.332;5.614;2023-01-16T12:13:01;3.88;;;2.90;;
48635;SDS011;34429;52.332;5.614;2023-01-16T12:15:47;4.85;;;2.20;;
48635;SDS011;34429;52.332;5.614;2023-01-16T12:18:28;3.85;;;2.78;;
48635;SDS011;34429;52.332;5.614;2023-01-16T12:21:02;5.22;;;2.63;;
48635;SDS011;34429;52.332;5.614;2023-01-16T12:23:40;4.88;;;2.65;;
48635;SDS011;34429;52.332;5.614;2023-01-16T12:26:24;6.00;;;2.33;;
48635;SDS011;34429;52.332;5.614;2023-01-16T12:29:05;7.40;;;3.47;;
48635;SDS011;34429;52.332;5.614;2023-01-16T12:31:46;5.63;;;3.13;;
48635;SDS011;34429;52.332;5.614;2023-01-16T12:37:30;3.75;;;2.55;;
48635;SDS011;34429;52.332;5.614;2023-01-16T12:40:19;4.03;;;2.47;;
48635;SDS011;34429;52.332;5.614;2023-01-16T12:43:04;3.63;;;2.20;;
48635;SDS011;34429;52.332;5.614;2023-01-16T12:45:48;3.55;;;2.00;;
48635;SDS011;34429;52.332;5.614;2023-01-16T12:48:27;3.65;;;1.70;;
48635;SDS011;34429;52.332;5.614;2023-01-16T12:51:10;2.78;;;2.00;;
48635;SDS011;34429;52.332;5.614;2023-01-16T12:54:05;3.38;;;1.77;;
48635;SDS011;34429;52.332;5.614;2023-01-16T12:56:44;3.47;;;1.70;;
48635;SDS011;34429;52.332;5.614;2023-01-16T12:59:25;3.08;;;1.58;;
48635;SDS011;34429;52.332;5.614;2023-01-16T13:01:57;3.85;;;1.55;;
48635;SDS011;34429;52.332;5.614;2023-01-16T13:04:37;2.67;;;1.30;;
48635;SDS011;34429;52.332;5.614;2023-01-16T13:07:10;3.63;;;1.30;;
48635;SDS011;34429;52.332;5.614;2023-01-16T13:09:43;2.33;;;1.27;;
48635;SDS011;34429;52.332;5.614;2023-01-16T13:12:37;1.88;;;1.67;;
48635;SDS011;34429;52.332;5.614;2023-01-16T13:15:22;2.38;;;1.45;;
48635;SDS011;34429;52.332;5.614;2023-01-16T13:17:55;2.22;;;1.50;;
48635;SDS011;34429;52.332;5.614;2023-01-16T13:20:28;2.33;;;1.48;;
48635;SDS011;34429;52.332;5.614;2023-01-16T13:25:28;3.10;;;1.90;;
48635;SDS011;34429;52.332;5.614;2023-01-16T13:28:01;1.77;;;1.30;;
48635;SDS011;34429;52.332;5.614;2023-01-16T13:30:36;3.58;;;1.77;;
48635;SDS011;34429;52.332;5.614;2023-01-16T13:33:07;3.58;;;1.70;;
48635;SDS011;34429;52.332;5.614;2023-01-16T13:35:40;3.30;;;1.60;;
48635;SDS011;34429;52.332;5.614;2023-01-16T13:38:23;3.78;;;1.80;;
48635;SDS011;34429;52.332;5.614;2023-01-16T13:41:09;2.83;;;2.05;;
48635;SDS011;34429;52.332;5.614;2023-01-16T13:43:45;3.58;;;1.77;;
48635;SDS011;34429;52.332;5.614;2023-01-16T13:46:34;3.90;;;1.67;;
48635;SDS011;34429;52.332;5.614;2023-01-16T13:49:03;2.25;;;1.60;;
48635;SDS011;34429;52.332;5.614;2023-01-16T13:51:39;2.38;;;1.63;;
48635;SDS011;34429;52.332;5.614;2023-01-16T13:54:11;2.13;;;1.52;;
48635;SDS011;34429;52.332;5.614;2023-01-16T13:56:43;2.40;;;1.60;;
48635;SDS011;34429;52.332;5.614;2023-01-16T13:59:29;3.45;;;1.80;;
48635;SDS011;34429;52.332;5.614;2023-01-16T14:02:22;4.05;;;1.92;;
48635;SDS011;34429;52.332;5.614;2023-01-16T14:05:14;2.75;;;1.70;;
48635;SDS011;34429;52.332;5.614;2023-01-16T14:07:48;6.00;;;1.75;;
48635;SDS011;34429;52.332;5.614;2023-01-16T14:10:37;3.55;;;1.92;;
48635;SDS011;34429;52.332;5.614;2023-01-16T14:13:13;5.70;;;2.05;;
48635;SDS011;34429;52.332;5.614;2023-01-16T14:15:47;3.28;;;1.88;;
48635;SDS011;34429;52.332;5.614;2023-01-16T14:18:37;2.63;;;1.58;;
48635;SDS011;34429;52.332;5.614;2023-01-16T14:21:18;2.47;;;1.58;;
48635;SDS011;34429;52.332;5.614;2023-01-16T14:23:49;2.85;;;2.10;;
48635;SDS011;34429;52.332;5.614;2023-01-16T14:26:34;2.80;;;1.60;;
48635;SDS011;34429;52.332;5.614;2023-01-16T14:29:12;2.53;;;1.63;;
48635;SDS011;34429;52.332;5.614;2023-01-16T14:31:45;4.35;;;1.90;;
48635;SDS011;34429;52.332;5.614;2023-01-16T14:34:24;2.20;;;1.75;;
48635;SDS011;34429;52.332;5.614;2023-01-16T14:37:02;3.10;;;2.17;;
48635;SDS011;34429;52.332;5.614;2023-01-16T14:39:32;2.60;;;2.08;;
48635;SDS011;34429;52.332;5.614;2023-01-16T14:42:03;4.20;;;2.22;;
48635;SDS011;34429;52.332;5.614;2023-01-16T14:50:58;3.60;;;1.98;;
48635;SDS011;34429;52.332;5.614;2023-01-16T14:53:40;3.85;;;2.22;;
48635;SDS011;34429;52.332;5.614;2023-01-16T14:56:28;3.20;;;2.03;;
48635;SDS011;34429;52.332;5.614;2023-01-16T14:59:02;4.40;;;2.40;;
48635;SDS011;34429;52.332;5.614;2023-01-16T15:01:37;2.75;;;2.08;;
48635;SDS011;34429;52.332;5.614;2023-01-16T15:04:23;2.75;;;2.05;;
48635;SDS011;34429;52.332;5.614;2023-01-16T15:07:00;2.78;;;2.28;;
48635;SDS011;34429;52.332;5.614;2023-01-16T15:09:30;2.95;;;2.33;;
48635;SDS011;34429;52.332;5.614;2023-01-16T15:12:00;5.47;;;2.57;;
48635;SDS011;34429;52.332;5.614;2023-01-16T15:14:29;3.22;;;2.10;;
48635;SDS011;34429;52.332;5.614;2023-01-16T15:17:03;3.67;;;2.72;;
48635;SDS011;34429;52.332;5.614;2023-01-16T15:19:56;3.95;;;2.20;;
48635;SDS011;34429;52.332;5.614;2023-01-16T15:22:42;3.17;;;2.13;;
48635;SDS011;34429;52.332;5.614;2023-01-16T15:25:17;2.67;;;2.15;;
48635;SDS011;34429;52.332;5.614;2023-01-16T15:28:02;3.85;;;2.50;;
48635;SDS011;34429;52.332;5.614;2023-01-16T15:30:36;2.83;;;2.10;;
48635;SDS011;34429;52.332;5.614;2023-01-16T15:33:10;4.45;;;2.10;;
48635;SDS011;34429;52.332;5.614;2023-01-16T15:36:02;3.53;;;2.30;;
48635;SDS011;34429;52.332;5.614;2023-01-16T15:38:46;2.78;;;2.22;;
48635;SDS011;34429;52.332;5.614;2023-01-16T15:41:19;3.10;;;2.55;;
48635;SDS011;34429;52.332;5.614;2023-01-16T15:44:13;5.30;;;2.03;;